createdAt,value
2019-01-22T00:04:03.955Z,82.00
2019-01-22T00:09:06.444Z,82.83
2019-01-22T00:14:08.857Z,83.13
2019-01-22T00:19:11.311Z,79.90
2019-01-22T00:24:13.775Z,80.57
2019-01-22T00:29:16.244Z,86.70
2019-01-22T00:34:18.716Z,79.53
2019-01-22T00:39:21.179Z,78.07
2019-01-22T00:44:23.639Z,74.33
2019-01-22T00:49:26.102Z,87.80
2019-01-22T00:54:28.568Z,79.30
2019-01-22T00:59:31.019Z,84.70
2019-01-22T01:04:33.478Z,78.97
2019-01-22T01:09:35.935Z,77.93
2019-01-22T01:14:38.401Z,78.30
2019-01-22T01:19:40.860Z,83.07
2019-01-22T01:24:43.315Z,74.97
2019-01-22T01:29:45.779Z,75.27
2019-01-22T01:34:48.237Z,72.83
2019-01-22T01:39:50.695Z,81.43
2019-01-22T01:44:53.261Z,81.57
2019-01-22T01:49:55.730Z,82.17
2019-01-22T01:54:58.188Z,86.03
2019-01-22T02:00:00.666Z,94.10
2019-01-22T02:05:03.180Z,88.43
2019-01-22T02:10:08.612Z,93.07
2019-01-22T02:15:29.211Z,84.77
2019-01-22T02:20:37.318Z,84.20
2019-01-22T02:25:54.830Z,88.60
2019-01-22T02:30:57.296Z,84.50
2019-01-22T02:36:12.043Z,82.97
2019-01-22T02:41:20.559Z,86.40
2019-01-22T02:46:38.327Z,92.87
2019-01-22T02:51:53.178Z,79.90
2019-01-22T02:56:55.966Z,84.03
2019-01-22T03:02:07.340Z,89.13
2019-01-22T03:07:24.778Z,89.13
2019-01-22T03:12:45.578Z,96.50
2019-01-22T03:18:15.280Z,91.93
2019-01-22T03:23:32.831Z,106.53
2019-01-22T03:28:50.239Z,102.17
2019-01-22T03:33:55.472Z,102.27
2019-01-22T03:39:15.965Z,94.87
2019-01-22T03:44:37.036Z,118.10
2019-01-22T03:49:48.319Z,103.60
2019-01-22T03:55:09.199Z,127.30
2019-01-22T04:00:11.685Z,132.63
2019-01-22T04:05:14.148Z,152.77
2019-01-22T04:10:16.644Z,133.03
2019-01-22T04:15:19.091Z,131.30
2019-01-22T04:20:21.551Z,145.10
2019-01-22T04:25:24.018Z,148.00
2019-01-22T04:30:32.287Z,154.00
2019-01-22T04:35:34.765Z,152.90
2019-01-22T04:40:55.675Z,143.50
2019-01-22T04:46:00.901Z,164.77
2019-01-22T04:51:07.998Z,190.27
2019-01-22T04:56:10.954Z,169.93
2019-01-22T05:01:32.345Z,154.93
2019-01-22T05:06:40.703Z,163.73
2019-01-22T05:11:52.106Z,156.00
2019-01-22T05:16:57.244Z,173.17
2019-01-22T05:22:02.796Z,154.43
2019-01-22T05:27:42.280Z,146.07
2019-01-22T05:33:06.275Z,208.67
2019-01-22T05:38:20.488Z,173.70
2019-01-22T05:43:59.858Z,172.17
2019-01-22T05:49:14.222Z,176.30
2019-01-22T05:54:16.695Z,166.27
2019-01-22T05:59:30.963Z,142.90
2019-01-22T06:04:48.242Z,142.47
2019-01-22T06:09:59.851Z,146.90
2019-01-22T06:15:07.803Z,154.80
2019-01-22T06:20:31.094Z,133.57
2019-01-22T06:25:36.187Z,118.00
2019-01-22T06:30:38.654Z,139.17
2019-01-22T06:35:49.874Z,128.97
2019-01-22T06:41:07.205Z,127.20
2019-01-22T06:46:24.467Z,118.03
2019-01-22T06:51:26.950Z,135.20
2019-01-22T06:56:32.541Z,129.40
2019-01-22T07:01:41.003Z,136.23
2019-01-22T07:06:55.302Z,133.73
2019-01-22T07:12:09.770Z,116.80
2019-01-22T07:17:12.269Z,119.57
2019-01-22T07:22:20.651Z,119.40
2019-01-22T07:27:31.909Z,136.23
2019-01-22T07:32:43.159Z,124.27
2019-01-22T07:37:45.629Z,120.00
2019-01-22T07:43:03.211Z,125.97
2019-01-22T07:48:05.686Z,118.73
2019-01-22T07:53:20.047Z,125.20
2019-01-22T07:58:34.590Z,129.97
2019-01-22T08:04:04.174Z,133.57
2019-01-22T08:09:28.367Z,114.27
2019-01-22T08:14:36.810Z,113.77
2019-01-22T08:19:57.679Z,121.57
2019-01-22T08:25:27.664Z,111.60
2019-01-22T08:30:36.149Z,122.10
2019-01-22T08:35:50.660Z,117.80
2019-01-22T08:41:17.418Z,112.60
2019-01-22T08:46:19.872Z,108.07
2019-01-22T08:51:28.086Z,109.00
2019-01-22T08:56:36.444Z,101.07
2019-01-22T09:01:54.230Z,105.93
2019-01-22T09:07:11.652Z,113.57
2019-01-22T09:12:14.259Z,99.73
2019-01-22T09:17:19.456Z,101.93
2019-01-22T09:22:21.925Z,95.10
2019-01-22T09:27:42.355Z,101.57
2019-01-22T09:32:47.957Z,96.43
2019-01-22T09:37:50.425Z,106.97
2019-01-22T09:42:52.879Z,97.90
2019-01-22T09:47:55.349Z,101.80
2019-01-22T09:52:57.806Z,98.87
2019-01-22T09:58:00.263Z,102.10
2019-01-22T10:03:02.722Z,89.97
2019-01-22T10:08:05.186Z,102.00
2019-01-22T10:13:07.648Z,102.13
2019-01-22T10:18:10.108Z,107.57
2019-01-22T10:23:14.053Z,99.93
2019-01-22T10:28:15.031Z,102.90
2019-01-22T10:33:17.479Z,99.13
2019-01-22T10:38:19.928Z,101.23
2019-01-22T10:43:22.395Z,105.70
2019-01-22T10:48:24.867Z,107.23
2019-01-22T10:53:27.335Z,120.30
2019-01-22T10:58:29.789Z,103.97
2019-01-22T11:03:32.354Z,98.70
2019-01-22T11:08:34.809Z,104.03
2019-01-22T11:13:37.272Z,98.83
2019-01-22T11:18:39.747Z,90.63
2019-01-22T11:23:42.200Z,93.20
2019-01-22T11:28:44.646Z,90.83
2019-01-22T11:33:47.093Z,94.37
2019-01-22T11:38:49.559Z,88.33
2019-01-22T11:43:52.019Z,86.97
2019-01-22T11:48:54.498Z,84.27
2019-01-22T11:53:56.974Z,84.13
2019-01-22T11:58:59.426Z,95.67
2019-01-22T12:04:02.155Z,89.13
2019-01-22T12:09:04.614Z,100.07
2019-01-22T12:14:07.073Z,92.90
2019-01-22T12:19:09.529Z,84.53
2019-01-22T12:24:12.003Z,82.33
2019-01-22T12:29:14.559Z,90.40
2019-01-22T12:34:17.016Z,88.13
2019-01-22T12:39:19.480Z,82.20
2019-01-22T12:44:21.937Z,73.23
2019-01-22T12:49:24.411Z,77.23
2019-01-22T12:54:26.876Z,72.80
2019-01-22T12:59:29.338Z,63.00
2019-01-22T13:04:31.788Z,71.67
2019-01-22T13:09:34.259Z,70.23
2019-01-22T13:14:36.719Z,73.37
2019-01-22T13:19:39.164Z,72.47
2019-01-22T13:24:41.616Z,69.00
2019-01-22T13:29:44.119Z,76.70
2019-01-22T13:34:46.560Z,77.97
2019-01-22T13:39:49.177Z,80.67
2019-01-22T13:44:51.454Z,79.70
2019-01-22T13:49:53.914Z,77.83
2019-01-22T13:54:56.367Z,85.77
2019-01-22T13:59:58.827Z,81.90
2019-01-22T14:05:01.297Z,78.30
2019-01-22T14:10:03.781Z,79.77
2019-01-22T14:15:06.249Z,76.57
2019-01-22T14:20:08.704Z,81.40
2019-01-22T14:25:11.182Z,83.50
2019-01-22T14:30:19.253Z,75.30
2019-01-22T14:35:21.726Z,56.80
2019-01-22T14:40:24.193Z,47.53
2019-01-22T14:45:26.661Z,44.43
2019-01-22T14:50:31.800Z,43.53
2019-01-22T14:55:34.268Z,45.97
2019-01-22T15:00:36.728Z,48.73
2019-01-22T15:05:39.183Z,44.93
2019-01-22T15:10:41.630Z,52.43
2019-01-22T15:15:44.118Z,47.53
2019-01-22T15:20:46.822Z,44.03
2019-01-22T15:25:49.298Z,48.80
2019-01-22T15:30:51.789Z,53.70
2019-01-22T15:35:54.253Z,51.13
2019-01-22T15:40:56.725Z,49.07
2019-01-22T15:45:59.323Z,48.63
2019-01-22T15:51:01.809Z,48.10
2019-01-22T15:56:04.279Z,48.60
2019-01-22T16:01:06.739Z,55.07
2019-01-22T16:06:09.203Z,49.97
2019-01-22T16:11:11.702Z,57.00
2019-01-22T16:16:14.180Z,55.87
2019-01-22T16:21:16.640Z,53.90
2019-01-22T16:26:19.097Z,50.20
2019-01-22T16:31:21.567Z,51.40
2019-01-22T16:36:24.027Z,53.17
2019-01-22T16:41:26.524Z,57.80
2019-01-22T16:46:28.985Z,58.17
2019-01-22T16:51:31.437Z,50.43
2019-01-22T16:56:33.895Z,55.20
2019-01-22T17:01:36.348Z,54.97
2019-01-22T17:06:38.831Z,53.13
2019-01-22T17:11:41.299Z,58.30
2019-01-22T17:16:43.749Z,53.77
2019-01-22T17:21:46.202Z,57.17
2019-01-22T17:26:48.675Z,61.20
2019-01-22T17:31:57.351Z,56.30
2019-01-22T17:36:59.804Z,59.20
2019-01-22T17:42:02.253Z,63.37
2019-01-22T17:47:04.727Z,58.97
2019-01-22T17:52:07.212Z,58.07
2019-01-22T17:57:13.846Z,57.40
2019-01-22T18:02:12.138Z,56.03
2019-01-22T18:07:14.637Z,57.10
2019-01-22T18:12:17.283Z,61.60
2019-01-22T18:17:19.761Z,54.50
2019-01-22T18:22:22.226Z,58.53
2019-01-22T18:27:24.708Z,65.03
2019-01-22T18:32:27.164Z,58.90
2019-01-22T18:37:29.613Z,61.83
2019-01-22T18:42:32.098Z,66.37
2019-01-22T18:47:34.559Z,71.37
2019-01-22T18:52:37.020Z,72.57
2019-01-22T18:57:39.523Z,70.80
2019-01-22T19:02:41.986Z,72.37
2019-01-22T19:07:44.468Z,73.73
2019-01-22T19:12:46.952Z,75.37
2019-01-22T19:17:49.393Z,71.87
2019-01-22T19:22:51.862Z,76.73
2019-01-22T19:27:54.351Z,76.77
2019-01-22T19:32:56.805Z,69.20
2019-01-22T19:37:59.318Z,79.83
2019-01-22T19:43:01.886Z,83.13
2019-01-22T19:48:04.365Z,81.17
2019-01-22T19:53:06.842Z,78.40
2019-01-22T19:58:10.702Z,81.30
2019-01-22T20:03:13.179Z,85.30
2019-01-22T20:08:15.650Z,82.53
2019-01-22T20:13:18.145Z,86.57
2019-01-22T20:18:20.641Z,80.30
2019-01-22T20:23:23.091Z,83.37
2019-01-22T20:28:25.579Z,79.87
2019-01-22T20:33:28.040Z,79.90
2019-01-22T20:38:30.517Z,82.70
2019-01-22T20:43:33.009Z,96.20
2019-01-22T20:48:35.482Z,85.50
2019-01-22T20:53:37.925Z,81.40
2019-01-22T20:58:40.733Z,83.80
2019-01-22T21:03:42.982Z,87.17
2019-01-22T21:08:45.466Z,79.40
2019-01-22T21:13:47.934Z,72.73
2019-01-22T21:18:50.425Z,79.43
2019-01-22T21:23:52.924Z,77.53
2019-01-22T21:28:55.375Z,81.03
2019-01-22T21:33:57.834Z,79.57
2019-01-22T21:39:00.288Z,79.47
2019-01-22T21:44:02.755Z,89.60
2019-01-22T21:49:05.228Z,83.53
2019-01-22T21:54:07.691Z,82.93
2019-01-22T21:59:10.149Z,85.10
2019-01-22T22:04:12.616Z,88.93
2019-01-22T22:09:15.070Z,85.33
2019-01-22T22:14:17.516Z,89.03
2019-01-22T22:19:20.000Z,83.43
2019-01-22T22:24:22.466Z,83.53
2019-01-22T22:29:24.925Z,83.37
2019-01-22T22:34:27.385Z,93.83
2019-01-22T22:39:29.848Z,89.33
2019-01-22T22:44:32.312Z,84.53
2019-01-22T22:49:34.809Z,91.00
2019-01-22T22:54:37.306Z,88.80
2019-01-22T22:59:39.731Z,86.67
2019-01-22T23:04:42.221Z,87.37
2019-01-22T23:09:44.691Z,83.33
2019-01-22T23:14:47.162Z,81.90
2019-01-22T23:19:49.621Z,73.80
2019-01-22T23:24:52.072Z,87.67
2019-01-22T23:29:54.522Z,90.33
2019-01-22T23:34:56.978Z,88.97
2019-01-22T23:39:59.440Z,85.07
2019-01-22T23:45:01.901Z,83.40
2019-01-22T23:50:07.083Z,87.00
2019-01-22T23:55:09.551Z,82.43
